KMRB

Eastern Wv Regional / Shepherd Field Airport

Martinsburg, West Virginia, USA
METAR KMRB 201653Z 26010KT 10SM SCT041 17/08 A2978 RMK AO2 SLP083 T01720083
Observed Flight Rules
Oct-20 @ 16:53 UTC (19 minutes ago) Visual Flight Rules
Wind Visibility Clouds
260° at 10 knots 10 miles
  • Scattered at 4,100' AGL
Temperatures Readings
Current 17°C / 63°F
Dewpoint 8°C / 46°F
Humidity 56%
Altimeter 29.78" Hg
Pressure 1008.3 hPa
Elevation 164
METAR KMRB 201653Z 26010KT 10SM SCT041 17/08 A2978 RMK AO2 SLP083 T01720083
Observed Flight Rules
Oct-20 @ 16:53 UTC
(19 minutes ago)
VFR
Wind Visibility
260° at 10 knots 10 miles
Clouds
  • Scattered at 4,100' AGL
Temperature Dewpoint
17°C / 63°F 8°C / 46°F
Humidity Altimeter Pressure
56% 29.78" Hg 1008.3 hPa